createdAt,value
2018-07-04T00:00:50.184Z,88
2018-07-04T00:01:52.459Z,88
2018-07-04T00:02:54.499Z,88
2018-07-04T00:03:56.499Z,88
2018-07-04T00:04:58.502Z,89
2018-07-04T00:06:00.777Z,89
2018-07-04T00:07:02.773Z,89
2018-07-04T00:08:04.846Z,89
2018-07-04T00:09:06.839Z,89
2018-07-04T00:10:09.111Z,89
2018-07-04T00:11:11.111Z,89
2018-07-04T00:12:13.119Z,89
2018-07-04T00:13:15.391Z,89
2018-07-04T00:14:17.725Z,89
2018-07-04T00:15:19.766Z,89
2018-07-04T00:16:21.769Z,89
2018-07-04T00:17:23.764Z,89
2018-07-04T00:18:25.771Z,89
2018-07-04T00:19:27.842Z,90
2018-07-04T00:20:29.840Z,89
2018-07-04T00:21:31.825Z,89
2018-07-04T00:22:33.823Z,89
2018-07-04T00:23:35.827Z,89
2018-07-04T00:24:37.819Z,89
2018-07-04T00:25:39.864Z,89
2018-07-04T00:26:41.816Z,89
2018-07-04T00:27:43.813Z,89
2018-07-04T00:28:46.084Z,89
2018-07-04T00:29:48.071Z,89
2018-07-04T00:30:50.074Z,89
2018-07-04T00:31:52.635Z,89
2018-07-04T00:32:54.627Z,89
2018-07-04T00:33:56.633Z,89
2018-07-04T00:34:59.010Z,89
2018-07-04T00:36:01.010Z,89
2018-07-04T00:37:03.014Z,89
2018-07-04T00:38:05.021Z,89
2018-07-04T00:39:07.015Z,90
2018-07-04T00:40:08.996Z,90
2018-07-04T00:41:10.997Z,90
2018-07-04T00:42:12.994Z,90
2018-07-04T00:43:14.985Z,90
2018-07-04T00:44:16.986Z,90
2018-07-04T00:45:18.965Z,90
2018-07-04T00:46:20.975Z,90
2018-07-04T00:47:22.977Z,90
2018-07-04T00:48:24.976Z,90
2018-07-04T00:49:26.975Z,90
2018-07-04T00:50:28.968Z,90
2018-07-04T00:51:30.960Z,90
2018-07-04T00:52:32.960Z,90
2018-07-04T00:53:34.948Z,90
2018-07-04T00:54:36.956Z,90
2018-07-04T00:55:38.946Z,90
2018-07-04T00:56:40.945Z,90
2018-07-04T00:57:42.938Z,90
2018-07-04T00:58:44.934Z,90
2018-07-04T00:59:46.927Z,90
2018-07-04T01:00:48.923Z,90
2018-07-04T01:01:50.913Z,90
2018-07-04T01:02:53.202Z,91
2018-07-04T01:03:55.192Z,91
2018-07-04T01:04:57.188Z,91
2018-07-04T01:05:59.182Z,90
2018-07-04T01:07:01.176Z,90
2018-07-04T01:08:03.175Z,90
2018-07-04T01:09:05.553Z,90
2018-07-04T01:10:07.857Z,90
2018-07-04T01:11:09.856Z,91
2018-07-04T01:12:12.223Z,90
2018-07-04T01:13:14.506Z,91
2018-07-04T01:14:16.489Z,90
2018-07-04T01:15:18.491Z,90
2018-07-04T01:16:20.484Z,90
2018-07-04T01:17:22.469Z,90
2018-07-04T01:18:24.462Z,91
2018-07-04T01:19:26.760Z,91
2018-07-04T01:20:28.737Z,91
2018-07-04T01:21:30.742Z,90
2018-07-04T01:22:32.731Z,90
2018-07-04T01:23:34.735Z,91
2018-07-04T01:24:37.012Z,91
2018-07-04T01:25:39.002Z,91
2018-07-04T01:26:41.004Z,91
2018-07-04T01:27:43.003Z,91
2018-07-04T01:28:45.290Z,91
2018-07-04T01:29:47.673Z,91
2018-07-04T01:30:49.665Z,91
2018-07-04T01:31:51.653Z,91
2018-07-04T01:32:53.651Z,91
2018-07-04T01:33:55.941Z,91
2018-07-04T01:34:57.948Z,91
2018-07-04T01:35:59.937Z,91
2018-07-04T01:37:01.943Z,91
2018-07-04T01:38:03.937Z,91
2018-07-04T01:39:05.933Z,91
2018-07-04T01:40:07.970Z,91
2018-07-04T01:41:09.976Z,91
2018-07-04T01:42:11.986Z,91
2018-07-04T01:43:14.258Z,91
2018-07-04T01:44:16.908Z,91
2018-07-04T01:45:18.908Z,91
2018-07-04T01:46:20.900Z,91
2018-07-04T01:47:22.929Z,91
2018-07-04T01:48:24.968Z,91
2018-07-04T01:49:27.007Z,91
2018-07-04T01:50:29.043Z,92
2018-07-04T01:51:31.083Z,92
2018-07-04T01:52:33.128Z,91
2018-07-04T01:53:35.472Z,92
2018-07-04T01:54:37.792Z,92
2018-07-04T01:55:40.211Z,92
2018-07-04T01:56:42.250Z,92
2018-07-04T01:57:44.282Z,92
2018-07-04T01:58:46.328Z,92
2018-07-04T01:59:48.354Z,91
2018-07-04T02:00:50.396Z,92
2018-07-04T02:01:52.427Z,92
2018-07-04T02:02:54.468Z,92
2018-07-04T02:03:56.895Z,91
2018-07-04T02:04:58.932Z,91
2018-07-04T02:06:00.968Z,92
2018-07-04T02:07:03.001Z,92
2018-07-04T02:08:05.058Z,92
2018-07-04T02:09:07.075Z,92
2018-07-04T02:10:09.119Z,92
2018-07-04T02:11:11.431Z,92
2018-07-04T02:12:13.465Z,92
2018-07-04T02:13:15.789Z,92
2018-07-04T02:14:17.825Z,92
2018-07-04T02:15:19.865Z,92
2018-07-04T02:16:21.903Z,92
2018-07-04T02:17:23.930Z,92
2018-07-04T02:18:26.254Z,92
2018-07-04T02:19:28.279Z,92
2018-07-04T02:20:30.318Z,92
2018-07-04T02:21:32.662Z,92
2018-07-04T02:22:34.713Z,92
2018-07-04T02:23:37.033Z,92
2018-07-04T02:24:39.064Z,92
2018-07-04T02:25:41.088Z,92
2018-07-04T02:26:43.131Z,91
2018-07-04T02:27:45.152Z,92
2018-07-04T02:28:47.502Z,92
2018-07-04T02:29:49.537Z,92
2018-07-04T02:30:51.573Z,92
2018-07-04T02:31:53.610Z,92
2018-07-04T02:32:55.645Z,92
2018-07-04T02:33:57.691Z,92
2018-07-04T02:35:00.028Z,92
2018-07-04T02:36:02.636Z,92
2018-07-04T02:37:04.962Z,92
2018-07-04T02:38:07.000Z,92
2018-07-04T02:39:09.338Z,92
2018-07-04T02:40:11.379Z,92
2018-07-04T02:41:13.416Z,92
2018-07-04T02:42:15.753Z,93
2018-07-04T02:43:17.777Z,92
2018-07-04T02:44:19.812Z,92
2018-07-04T02:45:21.859Z,92
2018-07-04T02:46:24.203Z,92
2018-07-04T02:47:26.539Z,92
2018-07-04T02:48:28.579Z,93
2018-07-04T02:49:30.618Z,93
2018-07-04T02:50:32.702Z,92
2018-07-04T02:51:34.737Z,93
2018-07-04T02:52:37.375Z,93
2018-07-04T02:53:39.411Z,93
2018-07-04T02:54:41.455Z,92
2018-07-04T02:55:43.489Z,92
2018-07-04T02:56:45.841Z,93
2018-07-04T02:57:48.456Z,93
2018-07-04T02:58:50.803Z,93
2018-07-04T02:59:52.846Z,93
2018-07-04T03:00:55.267Z,93
2018-07-04T03:01:57.313Z,93
2018-07-04T03:02:59.642Z,93
2018-07-04T03:04:01.674Z,93
2018-07-04T03:05:04.005Z,93
2018-07-04T03:06:06.031Z,93
2018-07-04T03:07:08.073Z,93
2018-07-04T03:08:10.099Z,93
2018-07-04T03:09:12.136Z,93
2018-07-04T03:10:14.856Z,93
2018-07-04T03:11:17.574Z,93
2018-07-04T03:12:19.901Z,93
2018-07-04T03:13:22.227Z,93
2018-07-04T03:14:24.541Z,93
2018-07-04T03:15:26.881Z,93
2018-07-04T03:16:29.217Z,93
2018-07-04T03:17:31.945Z,93
2018-07-04T03:18:34.939Z,93
2018-07-04T03:19:37.542Z,93
2018-07-04T03:20:39.858Z,93
2018-07-04T03:21:42.223Z,93
2018-07-04T03:22:44.557Z,92
2018-07-04T03:23:46.588Z,92
2018-07-04T03:24:48.926Z,92
2018-07-04T03:25:51.308Z,92
2018-07-04T03:26:53.293Z,92
2018-07-04T03:27:55.331Z,93
2018-07-04T03:28:57.377Z,93
2018-07-04T03:29:59.799Z,93
2018-07-04T03:31:01.834Z,93
2018-07-04T03:32:04.153Z,93
2018-07-04T03:33:06.276Z,93
2018-07-04T03:34:08.224Z,93
2018-07-04T03:35:10.264Z,93
2018-07-04T03:36:12.304Z,94
2018-07-04T03:37:14.344Z,94
2018-07-04T03:38:16.372Z,93
2018-07-04T03:39:18.414Z,93
2018-07-04T03:40:20.461Z,93
2018-07-04T03:41:22.495Z,93
2018-07-04T03:42:24.816Z,93
2018-07-04T03:43:27.133Z,93
2018-07-04T03:44:29.165Z,93
2018-07-04T03:45:31.196Z,93
2018-07-04T03:46:33.227Z,93
2018-07-04T03:47:35.272Z,93
2018-07-04T03:48:37.603Z,93
2018-07-04T03:49:39.629Z,93
2018-07-04T03:50:41.674Z,93
2018-07-04T03:51:43.709Z,93
2018-07-04T03:52:45.740Z,93
2018-07-04T03:53:47.782Z,93
2018-07-04T03:54:50.096Z,93
2018-07-04T03:55:52.135Z,93
2018-07-04T03:56:54.179Z,93
2018-07-04T03:57:56.204Z,93
2018-07-04T03:58:58.229Z,93
2018-07-04T04:00:00.654Z,93
2018-07-04T04:01:03.078Z,93
2018-07-04T04:02:05.116Z,93
2018-07-04T04:03:07.155Z,93
2018-07-04T04:04:09.189Z,93
2018-07-04T04:05:11.224Z,93
2018-07-04T04:06:13.928Z,93
2018-07-04T04:07:16.027Z,92
2018-07-04T04:08:18.016Z,92
2018-07-04T04:09:20.053Z,92
2018-07-04T04:10:22.089Z,92
2018-07-04T04:11:24.131Z,92
2018-07-04T04:12:26.174Z,92
2018-07-04T04:13:28.199Z,92
2018-07-04T04:14:30.552Z,92
2018-07-04T04:15:32.875Z,92
2018-07-04T04:16:34.913Z,92
2018-07-04T04:17:36.956Z,92
2018-07-04T04:18:38.983Z,93
2018-07-04T04:19:41.025Z,93
2018-07-04T04:20:43.062Z,93
2018-07-04T04:21:45.088Z,93
2018-07-04T04:22:47.130Z,93
2018-07-04T04:23:49.456Z,93
2018-07-04T04:24:51.773Z,93
2018-07-04T04:25:53.814Z,93
2018-07-04T04:26:55.843Z,93
2018-07-04T04:27:58.183Z,93
2018-07-04T04:29:00.598Z,93
2018-07-04T04:30:02.927Z,93
2018-07-04T04:31:04.964Z,93
2018-07-04T04:32:07.010Z,93
2018-07-04T04:33:09.045Z,92
2018-07-04T04:34:11.075Z,92
2018-07-04T04:35:13.106Z,92
2018-07-04T04:36:15.200Z,92
2018-07-04T04:37:17.178Z,92
2018-07-04T04:38:19.221Z,92
2018-07-04T04:39:21.267Z,93
2018-07-04T04:40:23.608Z,92
2018-07-04T04:41:25.631Z,93
2018-07-04T04:42:27.698Z,92
2018-07-04T04:43:29.700Z,92
2018-07-04T04:44:32.024Z,93
2018-07-04T04:45:34.065Z,92
2018-07-04T04:46:36.439Z,92
2018-07-04T04:47:38.433Z,92
2018-07-04T04:48:40.481Z,92
2018-07-04T04:49:42.795Z,92
2018-07-04T04:50:44.827Z,92
2018-07-04T04:51:46.871Z,91
2018-07-04T04:52:48.909Z,91
2018-07-04T04:53:51.218Z,91
2018-07-04T04:54:53.405Z,91
2018-07-04T04:55:55.311Z,91
2018-07-04T04:56:57.348Z,91
2018-07-04T04:57:59.391Z,91
2018-07-04T04:59:02.100Z,91
2018-07-04T05:00:04.134Z,91
2018-07-04T05:01:06.162Z,91
2018-07-04T05:02:08.201Z,91
2018-07-04T05:03:10.252Z,90
2018-07-04T05:04:12.266Z,90
2018-07-04T05:05:17.583Z,90
2018-07-04T05:06:19.619Z,90
2018-07-04T05:07:21.616Z,90
2018-07-04T05:08:23.624Z,90
2018-07-04T05:09:25.662Z,90
2018-07-04T05:10:27.674Z,90
2018-07-04T05:11:29.953Z,91
2018-07-04T05:12:31.952Z,91
2018-07-04T05:13:33.949Z,90
2018-07-04T05:14:36.229Z,91
2018-07-04T05:15:38.268Z,90
2018-07-04T05:16:40.253Z,89
2018-07-04T05:17:42.271Z,90
2018-07-04T05:18:44.262Z,90
2018-07-04T05:19:47.696Z,89
2018-07-04T05:20:51.111Z,89
2018-07-04T05:21:53.757Z,89
2018-07-04T05:22:56.070Z,89
2018-07-04T05:23:58.410Z,90
2018-07-04T05:25:00.449Z,90
2018-07-04T05:26:02.882Z,90
2018-07-04T05:27:04.911Z,89
2018-07-04T05:28:06.964Z,88
2018-07-04T05:29:09.001Z,88
2018-07-04T05:30:11.043Z,88
2018-07-04T05:31:13.089Z,88
2018-07-04T05:32:15.118Z,88
2018-07-04T05:33:17.448Z,87
2018-07-04T05:34:19.476Z,87
2018-07-04T05:35:21.814Z,87
2018-07-04T05:36:23.924Z,87
2018-07-04T05:37:25.884Z,87
2018-07-04T05:38:27.929Z,87
2018-07-04T05:39:29.959Z,87
2018-07-04T05:40:31.996Z,87
2018-07-04T05:41:34.035Z,87
2018-07-04T05:42:36.071Z,86
2018-07-04T05:43:38.111Z,86
2018-07-04T05:44:40.152Z,86
2018-07-04T05:45:42.178Z,87
2018-07-04T05:46:44.228Z,86
2018-07-04T05:47:46.263Z,86
2018-07-04T05:48:48.907Z,85
2018-07-04T05:49:51.229Z,85
2018-07-04T05:50:53.262Z,84
2018-07-04T05:51:55.302Z,84
2018-07-04T05:52:57.356Z,84
2018-07-04T05:53:59.387Z,84
2018-07-04T05:55:01.427Z,84
2018-07-04T05:56:03.748Z,83
2018-07-04T05:57:05.785Z,83
2018-07-04T05:58:08.115Z,83
2018-07-04T05:59:10.542Z,83
2018-07-04T06:00:12.592Z,83
2018-07-04T06:01:15.225Z,83
2018-07-04T06:02:17.260Z,82
2018-07-04T06:03:19.305Z,82
2018-07-04T06:04:21.347Z,82
2018-07-04T06:05:23.673Z,82
2018-07-04T06:06:26.030Z,82
2018-07-04T06:07:28.076Z,82
2018-07-04T06:08:30.118Z,82
2018-07-04T06:09:32.152Z,82
2018-07-04T06:10:34.482Z,81
2018-07-04T06:11:36.535Z,81
2018-07-04T06:12:38.571Z,81
2018-07-04T06:13:40.615Z,81
2018-07-04T06:14:42.653Z,81
2018-07-04T06:15:44.984Z,81
2018-07-04T06:16:47.028Z,81
2018-07-04T06:17:49.069Z,80
2018-07-04T06:18:51.127Z,80
2018-07-04T06:19:53.164Z,80
2018-07-04T06:20:55.196Z,80
2018-07-04T06:21:57.236Z,79
2018-07-04T06:22:59.272Z,79
2018-07-04T06:24:01.320Z,78
2018-07-04T06:25:03.759Z,79
2018-07-04T06:26:05.790Z,78
2018-07-04T06:27:08.122Z,78
2018-07-04T06:28:10.165Z,78
2018-07-04T06:29:12.207Z,79
2018-07-04T06:30:14.250Z,79
2018-07-04T06:31:16.287Z,78
2018-07-04T06:32:18.689Z,79
2018-07-04T06:33:20.701Z,78
2018-07-04T06:34:22.725Z,79
2018-07-04T06:35:25.069Z,78
2018-07-04T06:36:27.108Z,78
2018-07-04T06:37:29.154Z,77
2018-07-04T06:38:31.200Z,77
2018-07-04T06:39:33.242Z,77
2018-07-04T06:40:35.296Z,76
2018-07-04T06:41:37.333Z,76
2018-07-04T06:42:39.660Z,74
2018-07-04T06:43:42.005Z,73
2018-07-04T06:44:44.329Z,73
2018-07-04T06:45:46.376Z,72
2018-07-04T06:46:48.700Z,73
2018-07-04T06:47:51.028Z,72
2018-07-04T06:48:53.101Z,71
2018-07-04T06:49:55.113Z,71
2018-07-04T06:50:57.157Z,71
2018-07-04T06:51:59.191Z,71
2018-07-04T06:53:01.233Z,70
2018-07-04T06:54:03.347Z,72
2018-07-04T06:55:05.713Z,71
2018-07-04T06:56:07.760Z,71
2018-07-04T06:57:09.804Z,71
2018-07-04T06:58:12.135Z,71
2018-07-04T06:59:14.191Z,71
2018-07-04T07:00:16.914Z,71
2018-07-04T07:01:18.968Z,71
2018-07-04T07:02:21.298Z,71
2018-07-04T07:03:23.339Z,70
2018-07-04T07:04:25.390Z,69
2018-07-04T07:05:27.436Z,69
2018-07-04T07:06:29.463Z,69
2018-07-04T07:07:31.515Z,69
2018-07-04T07:08:33.604Z,69
2018-07-04T07:09:35.609Z,68
2018-07-04T07:10:37.661Z,70
2018-07-04T07:11:39.695Z,70
2018-07-04T07:12:41.740Z,69
2018-07-04T07:13:43.773Z,68
2018-07-04T07:14:45.826Z,68
2018-07-04T07:15:47.880Z,68
2018-07-04T07:16:49.913Z,69
2018-07-04T07:17:52.258Z,69
2018-07-04T07:18:54.580Z,70
2018-07-04T07:19:56.644Z,68
2018-07-04T07:20:58.984Z,68
2018-07-04T07:22:01.413Z,67
2018-07-04T07:23:03.464Z,67
2018-07-04T07:24:05.514Z,67
2018-07-04T07:25:08.220Z,66
2018-07-04T07:26:10.268Z,66
2018-07-04T07:27:12.316Z,67
2018-07-04T07:28:14.641Z,66
2018-07-04T07:29:16.693Z,66
2018-07-04T07:30:18.737Z,66
2018-07-04T07:31:20.789Z,66
2018-07-04T07:32:22.820Z,65
2018-07-04T07:33:25.178Z,65
2018-07-04T07:34:27.517Z,64
2018-07-04T07:35:29.552Z,64
2018-07-04T07:36:31.983Z,64
2018-07-04T07:37:34.414Z,64
2018-07-04T07:38:36.455Z,63
2018-07-04T07:39:38.502Z,64
2018-07-04T07:40:40.545Z,64
2018-07-04T07:41:42.574Z,63
2018-07-04T07:42:44.631Z,63
2018-07-04T07:43:46.971Z,63
2018-07-04T07:44:49.020Z,65
2018-07-04T07:45:51.065Z,64
2018-07-04T07:46:53.118Z,63
2018-07-04T07:47:55.163Z,61
2018-07-04T07:48:57.214Z,61
2018-07-04T07:49:59.249Z,62
2018-07-04T07:51:01.307Z,61
2018-07-04T07:52:03.362Z,60
2018-07-04T07:53:05.797Z,59
2018-07-04T07:54:07.915Z,59
2018-07-04T07:55:10.309Z,59
2018-07-04T07:56:12.360Z,60
2018-07-04T07:57:14.407Z,60
2018-07-04T07:58:16.458Z,60
2018-07-04T07:59:18.504Z,60
2018-07-04T08:00:20.829Z,58
2018-07-04T08:01:22.872Z,57
2018-07-04T08:02:24.918Z,57
2018-07-04T08:03:26.978Z,57
2018-07-04T08:04:29.017Z,56
2018-07-04T08:05:31.056Z,56
2018-07-04T08:06:33.103Z,56
2018-07-04T08:07:35.145Z,56
2018-07-04T08:08:37.201Z,57
2018-07-04T08:09:39.521Z,57
2018-07-04T08:10:41.863Z,56
2018-07-04T08:11:44.580Z,55
2018-07-04T08:12:46.630Z,56
2018-07-04T08:13:48.964Z,53
2018-07-04T08:14:51.018Z,54
2018-07-04T08:15:53.080Z,54
2018-07-04T08:16:55.128Z,54
2018-07-04T08:17:57.453Z,53
2018-07-04T08:18:59.497Z,52
2018-07-04T08:20:01.544Z,52
2018-07-04T08:21:04.193Z,53
2018-07-04T08:22:06.612Z,52
2018-07-04T08:23:08.665Z,52
2018-07-04T08:24:10.711Z,53
2018-07-04T08:25:12.760Z,52
2018-07-04T08:26:15.160Z,52
2018-07-04T08:27:17.159Z,52
2018-07-04T08:28:19.210Z,52
2018-07-04T08:29:21.254Z,53
2018-07-04T08:30:23.966Z,53
2018-07-04T08:31:26.025Z,54
2018-07-04T08:32:28.066Z,51
2018-07-04T08:33:30.127Z,50
2018-07-04T08:34:32.164Z,51
2018-07-04T08:35:34.207Z,48
2018-07-04T08:36:36.253Z,46
2018-07-04T08:37:38.291Z,47
2018-07-04T08:38:40.347Z,47
2018-07-04T08:39:42.392Z,47
2018-07-04T08:40:44.432Z,47
2018-07-04T08:41:46.472Z,46
2018-07-04T08:42:48.524Z,47
2018-07-04T08:43:51.148Z,48
2018-07-04T08:44:53.199Z,47
2018-07-04T08:45:55.234Z,45
2018-07-04T08:46:57.296Z,43
2018-07-04T08:47:59.331Z,44
2018-07-04T08:49:01.378Z,43
2018-07-04T08:50:03.424Z,43
2018-07-04T08:51:05.761Z,45
2018-07-04T08:52:07.808Z,43
2018-07-04T08:53:09.862Z,43
2018-07-04T08:54:11.892Z,43
2018-07-04T08:55:13.956Z,42
2018-07-04T08:56:16.007Z,42
2018-07-04T08:57:18.336Z,43
2018-07-04T08:58:20.910Z,44
2018-07-04T08:59:23.288Z,44
2018-07-04T09:00:25.720Z,45
2018-07-04T09:01:27.773Z,44
2018-07-04T09:02:30.137Z,44
2018-07-04T09:03:32.466Z,40
2018-07-04T09:04:34.817Z,41
2018-07-04T09:05:37.505Z,40
2018-07-04T09:06:39.544Z,41
2018-07-04T09:07:41.871Z,41
2018-07-04T09:08:43.922Z,41
2018-07-04T09:09:45.960Z,41
2018-07-04T09:10:48.008Z,41
2018-07-04T09:11:50.104Z,39
2018-07-04T09:12:52.390Z,41
2018-07-04T09:13:54.432Z,42
2018-07-04T09:14:56.764Z,42
2018-07-04T09:15:58.803Z,39
2018-07-04T09:17:00.850Z,38
2018-07-04T09:18:02.897Z,39
2018-07-04T09:19:04.945Z,40
2018-07-04T09:20:07.312Z,41
2018-07-04T09:21:09.350Z,38
2018-07-04T09:22:11.406Z,38
2018-07-04T09:23:13.840Z,39
2018-07-04T09:24:16.279Z,37
2018-07-04T09:25:18.336Z,38
2018-07-04T09:26:20.392Z,38
2018-07-04T09:27:22.440Z,36
2018-07-04T09:28:24.485Z,36
2018-07-04T09:29:27.503Z,36
2018-07-04T09:30:29.553Z,36
2018-07-04T09:31:31.597Z,36
2018-07-04T09:32:34.385Z,35
2018-07-04T09:33:37.072Z,35
2018-07-04T09:34:39.126Z,36
2018-07-04T09:35:41.176Z,34
2018-07-04T09:36:43.613Z,36
2018-07-04T09:37:45.658Z,37
2018-07-04T09:38:47.994Z,35
2018-07-04T09:39:50.056Z,31
2018-07-04T09:40:52.105Z,31
2018-07-04T09:41:54.158Z,32
2018-07-04T09:42:56.209Z,33
2018-07-04T09:43:58.261Z,35
2018-07-04T09:45:00.371Z,32
2018-07-04T09:46:02.364Z,32
2018-07-04T09:47:04.421Z,31
2018-07-04T09:48:06.765Z,32
2018-07-04T09:49:08.811Z,32
2018-07-04T09:50:11.150Z,33
2018-07-04T09:51:13.774Z,33
2018-07-04T09:52:16.215Z,33
2018-07-04T09:53:18.264Z,34
2018-07-04T09:54:20.322Z,34
2018-07-04T09:55:22.374Z,33
2018-07-04T09:56:24.710Z,34
2018-07-04T09:57:27.148Z,33
2018-07-04T09:58:29.200Z,30
2018-07-04T09:59:31.264Z,30
2018-07-04T10:00:33.311Z,29
2018-07-04T10:01:35.353Z,30
2018-07-04T10:02:37.411Z,30
2018-07-04T10:03:39.473Z,32
2018-07-04T10:04:41.531Z,32
2018-07-04T10:05:43.631Z,33
2018-07-04T10:06:45.928Z,31
2018-07-04T10:07:47.977Z,31
2018-07-04T10:08:50.015Z,31
2018-07-04T10:09:52.071Z,32
2018-07-04T10:10:54.137Z,30
2018-07-04T10:11:56.186Z,30
2018-07-04T10:12:58.251Z,31
2018-07-04T10:14:00.585Z,30
2018-07-04T10:15:02.645Z,30
2018-07-04T10:16:04.693Z,30
2018-07-04T10:17:06.752Z,30
2018-07-04T10:18:09.184Z,30
2018-07-04T10:19:11.630Z,30
2018-07-04T10:20:13.674Z,28
2018-07-04T10:21:15.732Z,29
2018-07-04T10:22:17.784Z,30
2018-07-04T10:23:20.120Z,30
2018-07-04T10:24:22.170Z,30
2018-07-04T10:25:24.812Z,30
2018-07-04T10:26:26.866Z,29
2018-07-04T10:27:28.924Z,29
2018-07-04T10:28:31.252Z,29
2018-07-04T10:29:33.713Z,30
2018-07-04T10:30:35.764Z,31
2018-07-04T10:31:38.104Z,31
2018-07-04T10:32:40.164Z,31
2018-07-04T10:33:42.219Z,30
2018-07-04T10:34:44.260Z,31
2018-07-04T10:35:46.709Z,30
2018-07-04T10:36:48.770Z,30
2018-07-04T10:37:50.824Z,30
2018-07-04T10:38:52.889Z,30
2018-07-04T10:39:54.938Z,31
2018-07-04T10:40:57.012Z,30
2018-07-04T10:41:59.381Z,30
2018-07-04T10:43:01.561Z,30
2018-07-04T10:44:03.626Z,29
2018-07-04T10:45:06.248Z,30
2018-07-04T10:46:08.307Z,30
2018-07-04T10:47:10.368Z,30
2018-07-04T10:48:12.422Z,29
2018-07-04T10:49:14.492Z,30
2018-07-04T10:50:16.540Z,30
2018-07-04T10:51:18.590Z,30
2018-07-04T10:52:20.650Z,30
2018-07-04T10:53:22.715Z,31
2018-07-04T10:54:24.773Z,30
2018-07-04T10:55:26.817Z,30
2018-07-04T10:56:28.876Z,29
2018-07-04T10:57:30.939Z,30
2018-07-04T10:58:33.077Z,30
2018-07-04T10:59:35.343Z,30
2018-07-04T11:00:37.420Z,31
2018-07-04T11:01:39.469Z,30
2018-07-04T11:02:41.520Z,30
2018-07-04T11:03:43.574Z,30
2018-07-04T11:04:45.638Z,31
2018-07-04T11:05:47.694Z,30
2018-07-04T11:06:49.766Z,31
2018-07-04T11:07:53.094Z,30
2018-07-04T11:08:55.123Z,31
2018-07-04T11:09:57.222Z,31
2018-07-04T11:10:59.273Z,31
2018-07-04T11:12:01.325Z,30
2018-07-04T11:13:03.718Z,29
2018-07-04T11:14:05.824Z,30
2018-07-04T11:15:07.823Z,30
2018-07-04T11:16:09.889Z,29
2018-07-04T11:17:12.042Z,30
2018-07-04T11:18:14.556Z,30
2018-07-04T11:19:16.847Z,30
2018-07-04T11:20:18.904Z,30
2018-07-04T11:21:21.427Z,29
2018-07-04T11:22:23.505Z,30
2018-07-04T11:23:26.371Z,30
2018-07-04T11:24:28.497Z,30
2018-07-04T11:25:30.653Z,29
2018-07-04T11:26:32.773Z,30
2018-07-04T11:27:34.898Z,30
2018-07-04T11:28:37.026Z,30
2018-07-04T11:29:39.423Z,30
2018-07-04T11:30:41.614Z,29
2018-07-04T11:31:44.086Z,31
2018-07-04T11:32:46.241Z,30
2018-07-04T11:33:48.366Z,30
2018-07-04T11:34:50.551Z,30
2018-07-04T11:35:52.816Z,30
2018-07-04T11:36:55.101Z,29
2018-07-04T11:37:58.257Z,31
2018-07-04T11:39:00.496Z,30
2018-07-04T11:40:02.989Z,29
2018-07-04T11:41:05.158Z,30
2018-07-04T11:42:07.400Z,29
2018-07-04T11:43:09.578Z,29
2018-07-04T11:44:12.099Z,29
2018-07-04T11:45:15.086Z,29
2018-07-04T11:46:17.676Z,29
2018-07-04T11:47:20.163Z,29
2018-07-04T11:48:22.269Z,30
2018-07-04T11:49:24.693Z,31
2018-07-04T11:50:26.766Z,29
2018-07-04T11:51:29.178Z,30
2018-07-04T11:52:31.733Z,30
2018-07-04T11:53:33.946Z,29
2018-07-04T11:54:36.881Z,30
2018-07-04T11:55:40.445Z,30
2018-07-04T11:56:42.809Z,29
2018-07-04T11:57:45.188Z,29
2018-07-04T11:58:48.801Z,29
2018-07-04T11:59:51.188Z,29
2018-07-04T12:00:54.466Z,28
2018-07-04T12:01:57.341Z,29
2018-07-04T12:02:59.906Z,29
2018-07-04T12:04:02.625Z,28
2018-07-04T12:05:05.545Z,29
2018-07-04T12:06:08.365Z,29
2018-07-04T12:07:11.042Z,28
2018-07-04T12:08:14.717Z,30
2018-07-04T12:09:17.467Z,29
2018-07-04T12:10:19.989Z,31
2018-07-04T12:11:22.268Z,30
2018-07-04T12:12:25.947Z,29
2018-07-04T12:13:28.266Z,30
2018-07-04T12:14:30.680Z,29
2018-07-04T12:15:34.058Z,29
2018-07-04T12:16:36.960Z,29
2018-07-04T12:17:39.820Z,29
2018-07-04T12:18:41.940Z,29
2018-07-04T12:19:45.653Z,28
2018-07-04T12:20:48.012Z,28
2018-07-04T12:21:50.821Z,27
2018-07-04T12:22:54.011Z,29
2018-07-04T12:23:57.035Z,28
2018-07-04T12:24:59.284Z,28
2018-07-04T12:26:02.013Z,28
2018-07-04T12:27:04.574Z,29
2018-07-04T12:28:07.185Z,28
2018-07-04T12:29:09.915Z,29
2018-07-04T12:30:12.012Z,26
2018-07-04T12:31:14.158Z,29
2018-07-04T12:32:16.264Z,30
2018-07-04T12:33:18.494Z,27
2018-07-04T12:34:20.884Z,27
2018-07-04T12:35:23.032Z,28
2018-07-04T12:36:25.112Z,28
2018-07-04T12:37:27.283Z,28
2018-07-04T12:38:29.953Z,25
2018-07-04T12:39:32.999Z,25
2018-07-04T12:40:35.098Z,26
2018-07-04T12:41:37.553Z,26
2018-07-04T12:42:39.652Z,27
2018-07-04T12:43:42.364Z,28
2018-07-04T12:44:44.690Z,27
2018-07-04T12:45:47.239Z,27
2018-07-04T12:46:50.107Z,27
2018-07-04T12:47:52.909Z,27
2018-07-04T12:48:55.045Z,28
2018-07-04T12:49:57.203Z,26
2018-07-04T12:50:59.578Z,26
2018-07-04T12:52:01.978Z,26
2018-07-04T12:53:04.099Z,26
2018-07-04T12:54:07.162Z,27
2018-07-04T12:55:10.150Z,27
2018-07-04T12:56:12.245Z,26
2018-07-04T12:57:14.333Z,27
2018-07-04T12:58:16.410Z,26
2018-07-04T12:59:18.832Z,25
2018-07-04T13:00:20.911Z,27
2018-07-04T13:01:22.986Z,27
2018-07-04T13:02:25.245Z,28
2018-07-04T13:03:27.549Z,27
2018-07-04T13:04:29.653Z,26
2018-07-04T13:05:31.823Z,26
2018-07-04T13:06:34.028Z,26
2018-07-04T13:07:36.599Z,24
2018-07-04T13:08:38.781Z,26
2018-07-04T13:09:41.067Z,24
2018-07-04T13:10:43.654Z,24
2018-07-04T13:11:46.081Z,25
2018-07-04T13:12:48.572Z,24
2018-07-04T13:13:51.432Z,24
2018-07-04T13:14:54.317Z,24
2018-07-04T13:15:56.627Z,24
2018-07-04T13:16:58.946Z,25
2018-07-04T13:18:01.153Z,25
2018-07-04T13:19:03.740Z,25
2018-07-04T13:20:05.877Z,24
2018-07-04T13:21:08.227Z,25
2018-07-04T13:22:10.647Z,25
2018-07-04T13:23:13.256Z,23
2018-07-04T13:24:15.399Z,23
2018-07-04T13:25:17.469Z,24
2018-07-04T13:26:19.573Z,23
2018-07-04T13:27:21.681Z,25
2018-07-04T13:28:23.795Z,25
2018-07-04T13:29:26.228Z,24
2018-07-04T13:30:28.336Z,24
2018-07-04T13:31:30.501Z,24
2018-07-04T13:32:32.590Z,23
2018-07-04T13:33:34.677Z,23
2018-07-04T13:34:37.297Z,23
2018-07-04T13:35:39.604Z,23
2018-07-04T13:36:42.045Z,24
2018-07-04T13:37:44.536Z,25
2018-07-04T13:38:46.924Z,25
2018-07-04T13:39:49.053Z,25
2018-07-04T13:40:51.256Z,25
2018-07-04T13:41:53.791Z,25
2018-07-04T13:42:55.990Z,26
2018-07-04T13:43:58.097Z,25
2018-07-04T13:45:00.209Z,25
2018-07-04T13:46:02.352Z,24
2018-07-04T13:47:04.533Z,23
2018-07-04T13:48:06.618Z,23
2018-07-04T13:49:08.990Z,22
2018-07-04T13:50:11.473Z,23
2018-07-04T13:51:13.545Z,24
2018-07-04T13:52:15.661Z,22
2018-07-04T13:53:17.770Z,22
2018-07-04T13:54:19.911Z,20
2018-07-04T13:55:22.069Z,20
2018-07-04T13:56:24.154Z,21
2018-07-04T13:57:26.256Z,21
2018-07-04T13:58:28.357Z,21
2018-07-04T13:59:30.822Z,21
2018-07-04T14:00:32.974Z,20
2018-07-04T14:01:35.063Z,21
2018-07-04T14:02:37.244Z,21
2018-07-04T14:03:39.974Z,20
2018-07-04T14:04:41.995Z,20
2018-07-04T14:05:44.081Z,19
2018-07-04T14:06:46.400Z,20
2018-07-04T14:07:48.580Z,19
2018-07-04T14:08:51.319Z,20
2018-07-04T14:09:53.399Z,19
2018-07-04T14:10:55.502Z,18
2018-07-04T14:11:57.633Z,19
2018-07-04T14:12:59.783Z,19
2018-07-04T14:14:01.906Z,21
2018-07-04T14:15:04.684Z,22
2018-07-04T14:16:06.786Z,22
2018-07-04T14:17:08.964Z,23
2018-07-04T14:18:11.093Z,23
2018-07-04T14:19:13.701Z,24
2018-07-04T14:20:15.796Z,23
2018-07-04T14:21:17.937Z,22
2018-07-04T14:22:20.468Z,22
2018-07-04T14:23:22.612Z,21
2018-07-04T14:24:25.145Z,23
2018-07-04T14:25:27.399Z,21
2018-07-04T14:26:29.581Z,21
2018-07-04T14:27:31.695Z,22
2018-07-04T14:28:33.770Z,21
2018-07-04T14:29:36.199Z,21
2018-07-04T14:30:38.274Z,22
2018-07-04T14:31:40.481Z,22
2018-07-04T14:32:42.664Z,23
2018-07-04T14:33:44.768Z,22
2018-07-04T14:34:46.988Z,23
2018-07-04T14:35:49.520Z,20
2018-07-04T14:36:51.701Z,21
2018-07-04T14:37:54.244Z,21
2018-07-04T14:38:56.836Z,22
2018-07-04T14:39:59.098Z,21
2018-07-04T14:41:01.447Z,21
2018-07-04T14:42:03.682Z,19
2018-07-04T14:43:06.000Z,19
2018-07-04T14:44:08.605Z,20
2018-07-04T14:45:10.830Z,19
2018-07-04T14:46:13.006Z,20
2018-07-04T14:47:15.257Z,21